sensor_id;sensor_type;location;lat;lon;timestamp;P1;durP1;ratioP1;P2;durP2;ratioP2
33654;SDS011;19997;51.274;22.506;2023-02-24T00:02:00;27.60;;;11.68;;
33654;SDS011;19997;51.274;22.506;2023-02-24T00:04:31;32.58;;;11.90;;
33654;SDS011;19997;51.274;22.506;2023-02-24T00:07:00;24.27;;;10.55;;
33654;SDS011;19997;51.274;22.506;2023-02-24T00:09:28;28.42;;;11.23;;
33654;SDS011;19997;51.274;22.506;2023-02-24T00:12:01;26.13;;;10.63;;
33654;SDS011;19997;51.274;22.506;2023-02-24T00:14:30;22.83;;;10.30;;
33654;SDS011;19997;51.274;22.506;2023-02-24T00:16:59;25.33;;;11.38;;
33654;SDS011;19997;51.274;22.506;2023-02-24T00:19:27;28.88;;;11.85;;
33654;SDS011;19997;51.274;22.506;2023-02-24T00:21:58;29.88;;;11.95;;
33654;SDS011;19997;51.274;22.506;2023-02-24T00:24:26;27.58;;;12.45;;
33654;SDS011;19997;51.274;22.506;2023-02-24T00:26:54;29.20;;;11.23;;
33654;SDS011;19997;51.274;22.506;2023-02-24T00:29:23;26.63;;;11.33;;
33654;SDS011;19997;51.274;22.506;2023-02-24T00:31:51;25.02;;;11.18;;
33654;SDS011;19997;51.274;22.506;2023-02-24T00:34:40;26.65;;;11.43;;
33654;SDS011;19997;51.274;22.506;2023-02-24T00:37:08;29.55;;;11.63;;
33654;SDS011;19997;51.274;22.506;2023-02-24T00:39:36;32.65;;;12.93;;
33654;SDS011;19997;51.274;22.506;2023-02-24T00:42:06;32.05;;;12.50;;
33654;SDS011;19997;51.274;22.506;2023-02-24T00:44:34;26.75;;;12.80;;
33654;SDS011;19997;51.274;22.506;2023-02-24T00:47:02;27.90;;;11.77;;
33654;SDS011;19997;51.274;22.506;2023-02-24T00:49:32;36.43;;;12.70;;
33654;SDS011;19997;51.274;22.506;2023-02-24T00:52:06;35.80;;;11.70;;
33654;SDS011;19997;51.274;22.506;2023-02-24T00:54:37;30.20;;;12.65;;
33654;SDS011;19997;51.274;22.506;2023-02-24T00:57:05;27.30;;;12.63;;
33654;SDS011;19997;51.274;22.506;2023-02-24T00:59:33;27.50;;;12.05;;
33654;SDS011;19997;51.274;22.506;2023-02-24T01:02:02;28.75;;;11.10;;
33654;SDS011;19997;51.274;22.506;2023-02-24T01:04:31;30.25;;;13.25;;
33654;SDS011;19997;51.274;22.506;2023-02-24T01:06:58;30.77;;;12.40;;
33654;SDS011;19997;51.274;22.506;2023-02-24T01:09:28;37.67;;;13.27;;
33654;SDS011;19997;51.274;22.506;2023-02-24T01:11:56;33.85;;;13.00;;
33654;SDS011;19997;51.274;22.506;2023-02-24T01:14:42;37.80;;;12.77;;
33654;SDS011;19997;51.274;22.506;2023-02-24T01:17:12;29.52;;;12.48;;
33654;SDS011;19997;51.274;22.506;2023-02-24T01:19:41;28.75;;;12.07;;
33654;SDS011;19997;51.274;22.506;2023-02-24T01:22:11;31.92;;;13.57;;
33654;SDS011;19997;51.274;22.506;2023-02-24T01:27:09;32.90;;;12.25;;
33654;SDS011;19997;51.274;22.506;2023-02-24T01:29:37;31.45;;;14.25;;
33654;SDS011;19997;51.274;22.506;2023-02-24T01:32:06;37.75;;;13.82;;
33654;SDS011;19997;51.274;22.506;2023-02-24T01:34:39;30.58;;;12.32;;
33654;SDS011;19997;51.274;22.506;2023-02-24T01:37:06;28.48;;;12.70;;
33654;SDS011;19997;51.274;22.506;2023-02-24T01:39:33;33.63;;;13.27;;
33654;SDS011;19997;51.274;22.506;2023-02-24T01:42:04;24.85;;;11.98;;
33654;SDS011;19997;51.274;22.506;2023-02-24T01:47:39;33.42;;;12.13;;
33654;SDS011;19997;51.274;22.506;2023-02-24T01:50:07;31.90;;;12.98;;
33654;SDS011;19997;51.274;22.506;2023-02-24T01:52:39;33.55;;;12.00;;
33654;SDS011;19997;51.274;22.506;2023-02-24T01:55:12;30.65;;;13.75;;
33654;SDS011;19997;51.274;22.506;2023-02-24T01:57:46;34.00;;;12.25;;
33654;SDS011;19997;51.274;22.506;2023-02-24T02:00:16;27.52;;;12.75;;
33654;SDS011;19997;51.274;22.506;2023-02-24T02:03:04;31.23;;;11.63;;
33654;SDS011;19997;51.274;22.506;2023-02-24T02:05:36;31.48;;;12.32;;
33654;SDS011;19997;51.274;22.506;2023-02-24T02:08:05;30.05;;;13.05;;
33654;SDS011;19997;51.274;22.506;2023-02-24T02:10:36;41.00;;;13.38;;
33654;SDS011;19997;51.274;22.506;2023-02-24T02:13:09;34.40;;;13.52;;
33654;SDS011;19997;51.274;22.506;2023-02-24T02:15:42;33.22;;;13.55;;
33654;SDS011;19997;51.274;22.506;2023-02-24T02:18:14;36.22;;;13.00;;
33654;SDS011;19997;51.274;22.506;2023-02-24T02:21:01;31.77;;;14.65;;
33654;SDS011;19997;51.274;22.506;2023-02-24T02:23:52;38.30;;;13.70;;
33654;SDS011;19997;51.274;22.506;2023-02-24T02:26:41;30.15;;;12.57;;
33654;SDS011;19997;51.274;22.506;2023-02-24T02:29:28;33.03;;;13.73;;
33654;SDS011;19997;51.274;22.506;2023-02-24T02:34:58;32.55;;;13.23;;
33654;SDS011;19997;51.274;22.506;2023-02-24T02:37:31;40.90;;;13.27;;
33654;SDS011;19997;51.274;22.506;2023-02-24T02:40:03;32.20;;;12.68;;
33654;SDS011;19997;51.274;22.506;2023-02-24T02:42:43;36.08;;;12.98;;
33654;SDS011;19997;51.274;22.506;2023-02-24T02:45:17;32.72;;;13.13;;
33654;SDS011;19997;51.274;22.506;2023-02-24T02:47:52;25.83;;;12.23;;
33654;SDS011;19997;51.274;22.506;2023-02-24T02:50:27;30.17;;;12.48;;
33654;SDS011;19997;51.274;22.506;2023-02-24T02:53:02;42.78;;;15.63;;
33654;SDS011;19997;51.274;22.506;2023-02-24T02:55:34;35.08;;;13.25;;
33654;SDS011;19997;51.274;22.506;2023-02-24T02:58:07;32.97;;;13.23;;
33654;SDS011;19997;51.274;22.506;2023-02-24T03:00:40;36.05;;;12.50;;
33654;SDS011;19997;51.274;22.506;2023-02-24T03:03:16;35.83;;;14.07;;
33654;SDS011;19997;51.274;22.506;2023-02-24T03:05:47;36.00;;;12.32;;
33654;SDS011;19997;51.274;22.506;2023-02-24T03:08:21;34.45;;;13.82;;
33654;SDS011;19997;51.274;22.506;2023-02-24T03:10:53;35.88;;;13.65;;
33654;SDS011;19997;51.274;22.506;2023-02-24T03:13:26;29.67;;;12.95;;
33654;SDS011;19997;51.274;22.506;2023-02-24T03:15:56;30.48;;;13.45;;
33654;SDS011;19997;51.274;22.506;2023-02-24T03:18:27;38.75;;;13.80;;
33654;SDS011;19997;51.274;22.506;2023-02-24T03:21:00;29.75;;;12.73;;
33654;SDS011;19997;51.274;22.506;2023-02-24T03:23:33;30.15;;;12.93;;
33654;SDS011;19997;51.274;22.506;2023-02-24T03:26:04;37.80;;;13.75;;
33654;SDS011;19997;51.274;22.506;2023-02-24T03:28:46;33.17;;;13.43;;
33654;SDS011;19997;51.274;22.506;2023-02-24T03:31:20;33.10;;;13.35;;
33654;SDS011;19997;51.274;22.506;2023-02-24T03:33:54;32.35;;;13.07;;
33654;SDS011;19997;51.274;22.506;2023-02-24T03:36:29;28.63;;;13.13;;
33654;SDS011;19997;51.274;22.506;2023-02-24T03:38:58;34.08;;;12.07;;
33654;SDS011;19997;51.274;22.506;2023-02-24T03:41:31;31.55;;;12.27;;
33654;SDS011;19997;51.274;22.506;2023-02-24T03:44:05;32.85;;;12.00;;
33654;SDS011;19997;51.274;22.506;2023-02-24T03:46:36;31.13;;;13.55;;
33654;SDS011;19997;51.274;22.506;2023-02-24T03:49:08;28.70;;;11.43;;
33654;SDS011;19997;51.274;22.506;2023-02-24T03:51:45;34.03;;;13.25;;
33654;SDS011;19997;51.274;22.506;2023-02-24T03:54:27;33.42;;;13.43;;
33654;SDS011;19997;51.274;22.506;2023-02-24T03:57:25;28.98;;;11.35;;
33654;SDS011;19997;51.274;22.506;2023-02-24T04:00:02;28.17;;;11.60;;
33654;SDS011;19997;51.274;22.506;2023-02-24T04:02:46;32.53;;;13.70;;
33654;SDS011;19997;51.274;22.506;2023-02-24T04:05:21;35.85;;;13.57;;
33654;SDS011;19997;51.274;22.506;2023-02-24T04:08:01;30.85;;;12.52;;
33654;SDS011;19997;51.274;22.506;2023-02-24T04:10:30;32.50;;;13.27;;
33654;SDS011;19997;51.274;22.506;2023-02-24T04:13:07;29.77;;;13.18;;
33654;SDS011;19997;51.274;22.506;2023-02-24T04:15:44;31.33;;;12.57;;
33654;SDS011;19997;51.274;22.506;2023-02-24T04:18:17;28.88;;;12.25;;
33654;SDS011;19997;51.274;22.506;2023-02-24T04:20:47;32.58;;;11.85;;
33654;SDS011;19997;51.274;22.506;2023-02-24T04:23:21;27.45;;;11.48;;
33654;SDS011;19997;51.274;22.506;2023-02-24T04:25:53;25.88;;;12.80;;
33654;SDS011;19997;51.274;22.506;2023-02-24T04:28:21;32.40;;;12.82;;
33654;SDS011;19997;51.274;22.506;2023-02-24T04:30:51;39.15;;;13.45;;
33654;SDS011;19997;51.274;22.506;2023-02-24T04:33:22;36.60;;;14.57;;
33654;SDS011;19997;51.274;22.506;2023-02-24T04:35:51;33.25;;;13.32;;
33654;SDS011;19997;51.274;22.506;2023-02-24T04:38:22;28.75;;;11.80;;
33654;SDS011;19997;51.274;22.506;2023-02-24T04:40:49;33.75;;;13.40;;
33654;SDS011;19997;51.274;22.506;2023-02-24T04:43:16;31.08;;;12.30;;
33654;SDS011;19997;51.274;22.506;2023-02-24T04:45:43;35.45;;;14.95;;
33654;SDS011;19997;51.274;22.506;2023-02-24T04:48:10;26.85;;;12.75;;
33654;SDS011;19997;51.274;22.506;2023-02-24T04:50:38;26.67;;;11.90;;
33654;SDS011;19997;51.274;22.506;2023-02-24T04:53:07;27.27;;;11.80;;
33654;SDS011;19997;51.274;22.506;2023-02-24T04:55:38;28.98;;;12.32;;
33654;SDS011;19997;51.274;22.506;2023-02-24T04:58:08;30.17;;;13.70;;
33654;SDS011;19997;51.274;22.506;2023-02-24T05:00:37;35.00;;;13.95;;
33654;SDS011;19997;51.274;22.506;2023-02-24T05:03:06;33.47;;;14.63;;
33654;SDS011;19997;51.274;22.506;2023-02-24T05:08:04;31.67;;;13.73;;
33654;SDS011;19997;51.274;22.506;2023-02-24T05:10:34;33.30;;;14.30;;
33654;SDS011;19997;51.274;22.506;2023-02-24T05:13:04;37.75;;;15.02;;
33654;SDS011;19997;51.274;22.506;2023-02-24T05:15:33;36.47;;;13.93;;
33654;SDS011;19997;51.274;22.506;2023-02-24T05:18:05;44.03;;;16.65;;
33654;SDS011;19997;51.274;22.506;2023-02-24T05:20:38;38.60;;;15.68;;
33654;SDS011;19997;51.274;22.506;2023-02-24T05:23:24;34.08;;;13.95;;
33654;SDS011;19997;51.274;22.506;2023-02-24T05:25:52;39.72;;;16.48;;
33654;SDS011;19997;51.274;22.506;2023-02-24T05:28:21;42.63;;;14.82;;
33654;SDS011;19997;51.274;22.506;2023-02-24T05:30:49;28.87;;;14.03;;
33654;SDS011;19997;51.274;22.506;2023-02-24T05:33:17;32.10;;;13.05;;
33654;SDS011;19997;51.274;22.506;2023-02-24T05:35:45;32.05;;;12.65;;
33654;SDS011;19997;51.274;22.506;2023-02-24T05:38:13;34.08;;;12.38;;
33654;SDS011;19997;51.274;22.506;2023-02-24T05:40:44;32.15;;;12.27;;
33654;SDS011;19997;51.274;22.506;2023-02-24T05:43:12;31.48;;;12.20;;
33654;SDS011;19997;51.274;22.506;2023-02-24T05:45:44;30.20;;;10.80;;
33654;SDS011;19997;51.274;22.506;2023-02-24T05:48:12;25.77;;;12.30;;
33654;SDS011;19997;51.274;22.506;2023-02-24T05:50:39;24.02;;;10.88;;
33654;SDS011;19997;51.274;22.506;2023-02-24T05:53:10;24.65;;;11.82;;
33654;SDS011;19997;51.274;22.506;2023-02-24T05:55:39;25.80;;;10.77;;
33654;SDS011;19997;51.274;22.506;2023-02-24T05:58:07;31.42;;;11.68;;
33654;SDS011;19997;51.274;22.506;2023-02-24T06:00:35;35.10;;;11.80;;
33654;SDS011;19997;51.274;22.506;2023-02-24T06:03:06;28.88;;;11.10;;
33654;SDS011;19997;51.274;22.506;2023-02-24T06:05:34;25.08;;;10.38;;
33654;SDS011;19997;51.274;22.506;2023-02-24T06:08:03;30.65;;;11.23;;
33654;SDS011;19997;51.274;22.506;2023-02-24T06:10:36;27.70;;;10.45;;
33654;SDS011;19997;51.274;22.506;2023-02-24T06:13:05;27.25;;;10.80;;
33654;SDS011;19997;51.274;22.506;2023-02-24T06:15:32;27.48;;;10.82;;
33654;SDS011;19997;51.274;22.506;2023-02-24T06:17:59;24.38;;;10.05;;
33654;SDS011;19997;51.274;22.506;2023-02-24T06:20:28;25.17;;;11.38;;
33654;SDS011;19997;51.274;22.506;2023-02-24T06:22:57;29.05;;;10.68;;
33654;SDS011;19997;51.274;22.506;2023-02-24T06:25:26;26.63;;;10.02;;
33654;SDS011;19997;51.274;22.506;2023-02-24T06:27:54;30.15;;;10.88;;
33654;SDS011;19997;51.274;22.506;2023-02-24T06:30:26;26.10;;;9.70;;
33654;SDS011;19997;51.274;22.506;2023-02-24T06:32:53;28.92;;;11.05;;
33654;SDS011;19997;51.274;22.506;2023-02-24T06:35:21;30.92;;;12.15;;
33654;SDS011;19997;51.274;22.506;2023-02-24T06:37:49;26.98;;;13.23;;
33654;SDS011;19997;51.274;22.506;2023-02-24T06:40:19;24.23;;;10.13;;
33654;SDS011;19997;51.274;22.506;2023-02-24T06:42:48;23.73;;;10.27;;
33654;SDS011;19997;51.274;22.506;2023-02-24T06:45:18;24.95;;;10.82;;
33654;SDS011;19997;51.274;22.506;2023-02-24T06:47:45;29.58;;;10.98;;
33654;SDS011;19997;51.274;22.506;2023-02-24T06:50:14;25.80;;;10.40;;
33654;SDS011;19997;51.274;22.506;2023-02-24T06:52:43;28.40;;;9.45;;
33654;SDS011;19997;51.274;22.506;2023-02-24T06:55:11;28.10;;;11.20;;
33654;SDS011;19997;51.274;22.506;2023-02-24T06:57:51;22.80;;;10.48;;
33654;SDS011;19997;51.274;22.506;2023-02-24T07:00:25;32.70;;;10.30;;
33654;SDS011;19997;51.274;22.506;2023-02-24T07:03:04;26.08;;;10.77;;
33654;SDS011;19997;51.274;22.506;2023-02-24T07:05:43;23.98;;;10.95;;
33654;SDS011;19997;51.274;22.506;2023-02-24T07:08:15;25.42;;;10.23;;
33654;SDS011;19997;51.274;22.506;2023-02-24T07:10:57;24.42;;;10.70;;
33654;SDS011;19997;51.274;22.506;2023-02-24T07:13:24;26.65;;;9.73;;
33654;SDS011;19997;51.274;22.506;2023-02-24T07:15:54;24.45;;;9.77;;
33654;SDS011;19997;51.274;22.506;2023-02-24T07:18:21;27.90;;;10.75;;
33654;SDS011;19997;51.274;22.506;2023-02-24T07:20:50;25.25;;;9.85;;
33654;SDS011;19997;51.274;22.506;2023-02-24T07:23:18;19.92;;;10.57;;
33654;SDS011;19997;51.274;22.506;2023-02-24T07:25:45;25.98;;;10.43;;
33654;SDS011;19997;51.274;22.506;2023-02-24T07:28:14;27.92;;;10.85;;
33654;SDS011;19997;51.274;22.506;2023-02-24T07:30:43;24.55;;;10.43;;
33654;SDS011;19997;51.274;22.506;2023-02-24T07:33:10;28.15;;;10.35;;
33654;SDS011;19997;51.274;22.506;2023-02-24T07:35:38;21.95;;;9.48;;
33654;SDS011;19997;51.274;22.506;2023-02-24T07:38:06;30.52;;;10.23;;
33654;SDS011;19997;51.274;22.506;2023-02-24T07:40:33;27.73;;;10.25;;
33654;SDS011;19997;51.274;22.506;2023-02-24T07:43:00;21.35;;;10.00;;
33654;SDS011;19997;51.274;22.506;2023-02-24T07:45:31;26.87;;;10.73;;
33654;SDS011;19997;51.274;22.506;2023-02-24T07:47:58;23.08;;;11.32;;
33654;SDS011;19997;51.274;22.506;2023-02-24T07:50:28;27.52;;;11.77;;
33654;SDS011;19997;51.274;22.506;2023-02-24T07:52:56;32.25;;;11.45;;
33654;SDS011;19997;51.274;22.506;2023-02-24T07:55:24;27.52;;;10.98;;
33654;SDS011;19997;51.274;22.506;2023-02-24T07:57:55;26.80;;;11.02;;
33654;SDS011;19997;51.274;22.506;2023-02-24T08:00:22;25.23;;;11.00;;
33654;SDS011;19997;51.274;22.506;2023-02-24T08:02:53;20.40;;;9.45;;
33654;SDS011;19997;51.274;22.506;2023-02-24T08:05:21;24.97;;;10.53;;
33654;SDS011;19997;51.274;22.506;2023-02-24T08:07:49;24.55;;;10.00;;
33654;SDS011;19997;51.274;22.506;2023-02-24T08:10:21;25.42;;;11.02;;
33654;SDS011;19997;51.274;22.506;2023-02-24T08:12:51;27.45;;;10.55;;
33654;SDS011;19997;51.274;22.506;2023-02-24T08:15:27;26.10;;;10.07;;
33654;SDS011;19997;51.274;22.506;2023-02-24T08:17:59;33.72;;;11.40;;
33654;SDS011;19997;51.274;22.506;2023-02-24T08:20:27;29.55;;;11.60;;
33654;SDS011;19997;51.274;22.506;2023-02-24T08:23:00;22.05;;;10.73;;
33654;SDS011;19997;51.274;22.506;2023-02-24T08:25:30;25.70;;;10.98;;
33654;SDS011;19997;51.274;22.506;2023-02-24T08:28:01;32.47;;;11.88;;
33654;SDS011;19997;51.274;22.506;2023-02-24T08:33:05;27.98;;;12.18;;
33654;SDS011;19997;51.274;22.506;2023-02-24T08:35:34;26.00;;;11.27;;
33654;SDS011;19997;51.274;22.506;2023-02-24T08:38:04;25.40;;;11.60;;
33654;SDS011;19997;51.274;22.506;2023-02-24T08:40:33;32.57;;;10.43;;
33654;SDS011;19997;51.274;22.506;2023-02-24T08:43:16;26.88;;;13.07;;
33654;SDS011;19997;51.274;22.506;2023-02-24T08:45:49;25.70;;;11.95;;
33654;SDS011;19997;51.274;22.506;2023-02-24T08:48:23;24.58;;;11.45;;
33654;SDS011;19997;51.274;22.506;2023-02-24T08:50:57;31.33;;;13.68;;
33654;SDS011;19997;51.274;22.506;2023-02-24T08:53:26;31.55;;;14.50;;
33654;SDS011;19997;51.274;22.506;2023-02-24T08:55:56;25.75;;;11.98;;
33654;SDS011;19997;51.274;22.506;2023-02-24T08:58:24;27.60;;;11.70;;
33654;SDS011;19997;51.274;22.506;2023-02-24T09:00:52;28.88;;;12.75;;
33654;SDS011;19997;51.274;22.506;2023-02-24T09:03:23;23.38;;;11.13;;
33654;SDS011;19997;51.274;22.506;2023-02-24T09:06:01;35.97;;;11.43;;
33654;SDS011;19997;51.274;22.506;2023-02-24T09:08:30;30.88;;;11.50;;
33654;SDS011;19997;51.274;22.506;2023-02-24T09:10:59;25.75;;;11.88;;
33654;SDS011;19997;51.274;22.506;2023-02-24T09:13:32;34.00;;;13.18;;
33654;SDS011;19997;51.274;22.506;2023-02-24T09:15:59;25.75;;;12.45;;
33654;SDS011;19997;51.274;22.506;2023-02-24T09:18:28;30.77;;;11.13;;
33654;SDS011;19997;51.274;22.506;2023-02-24T09:21:09;33.85;;;13.60;;
33654;SDS011;19997;51.274;22.506;2023-02-24T09:23:57;29.13;;;12.48;;
33654;SDS011;19997;51.274;22.506;2023-02-24T09:26:29;31.88;;;13.32;;
33654;SDS011;19997;51.274;22.506;2023-02-24T09:29:07;27.27;;;13.55;;
33654;SDS011;19997;51.274;22.506;2023-02-24T09:31:56;25.52;;;12.38;;
33654;SDS011;19997;51.274;22.506;2023-02-24T09:34:30;25.67;;;11.50;;
33654;SDS011;19997;51.274;22.506;2023-02-24T09:36:57;32.42;;;13.57;;
33654;SDS011;19997;51.274;22.506;2023-02-24T09:42:16;28.13;;;12.07;;
33654;SDS011;19997;51.274;22.506;2023-02-24T09:44:59;31.25;;;13.73;;
33654;SDS011;19997;51.274;22.506;2023-02-24T09:47:31;31.05;;;14.27;;
33654;SDS011;19997;51.274;22.506;2023-02-24T09:50:20;30.25;;;13.15;;
33654;SDS011;19997;51.274;22.506;2023-02-24T09:53:02;33.60;;;14.50;;
33654;SDS011;19997;51.274;22.506;2023-02-24T09:55:43;30.92;;;14.10;;
33654;SDS011;19997;51.274;22.506;2023-02-24T09:58:30;33.13;;;14.60;;
33654;SDS011;19997;51.274;22.506;2023-02-24T10:01:07;29.80;;;12.75;;
33654;SDS011;19997;51.274;22.506;2023-02-24T10:03:49;27.90;;;12.65;;
33654;SDS011;19997;51.274;22.506;2023-02-24T10:06:30;27.67;;;13.27;;
33654;SDS011;19997;51.274;22.506;2023-02-24T10:09:05;29.38;;;13.73;;
33654;SDS011;19997;51.274;22.506;2023-02-24T10:11:39;26.70;;;12.88;;
33654;SDS011;19997;51.274;22.506;2023-02-24T10:14:19;29.35;;;12.80;;
33654;SDS011;19997;51.274;22.506;2023-02-24T10:16:53;29.00;;;13.80;;
33654;SDS011;19997;51.274;22.506;2023-02-24T10:19:39;26.73;;;12.77;;
33654;SDS011;19997;51.274;22.506;2023-02-24T10:22:09;31.05;;;12.43;;
33654;SDS011;19997;51.274;22.506;2023-02-24T10:24:53;34.55;;;13.82;;
33654;SDS011;19997;51.274;22.506;2023-02-24T10:27:40;30.15;;;12.85;;
33654;SDS011;19997;51.274;22.506;2023-02-24T10:30:23;31.05;;;13.18;;
33654;SDS011;19997;51.274;22.506;2023-02-24T10:33:08;28.88;;;12.88;;
33654;SDS011;19997;51.274;22.506;2023-02-24T10:36:02;29.70;;;12.75;;
33654;SDS011;19997;51.274;22.506;2023-02-24T10:38:35;35.08;;;13.63;;
33654;SDS011;19997;51.274;22.506;2023-02-24T10:41:07;28.08;;;13.35;;
33654;SDS011;19997;51.274;22.506;2023-02-24T10:43:34;27.42;;;12.00;;
33654;SDS011;19997;51.274;22.506;2023-02-24T10:46:19;29.25;;;14.43;;
33654;SDS011;19997;51.274;22.506;2023-02-24T10:48:50;32.13;;;13.98;;
33654;SDS011;19997;51.274;22.506;2023-02-24T10:51:28;31.48;;;13.73;;
33654;SDS011;19997;51.274;22.506;2023-02-24T10:54:09;34.03;;;14.25;;
33654;SDS011;19997;51.274;22.506;2023-02-24T10:56:55;35.33;;;13.65;;
33654;SDS011;19997;51.274;22.506;2023-02-24T11:02:34;26.83;;;12.77;;
33654;SDS011;19997;51.274;22.506;2023-02-24T11:05:21;25.27;;;12.70;;
33654;SDS011;19997;51.274;22.506;2023-02-24T11:08:08;26.52;;;12.48;;
33654;SDS011;19997;51.274;22.506;2023-02-24T11:10:51;24.00;;;11.88;;
33654;SDS011;19997;51.274;22.506;2023-02-24T11:13:22;28.90;;;12.77;;
33654;SDS011;19997;51.274;22.506;2023-02-24T11:16:09;25.63;;;11.30;;
33654;SDS011;19997;51.274;22.506;2023-02-24T11:18:54;22.95;;;11.57;;
33654;SDS011;19997;51.274;22.506;2023-02-24T11:21:23;26.88;;;11.73;;
33654;SDS011;19997;51.274;22.506;2023-02-24T11:23:52;28.27;;;12.35;;
33654;SDS011;19997;51.274;22.506;2023-02-24T11:26:25;25.58;;;10.88;;
33654;SDS011;19997;51.274;22.506;2023-02-24T11:29:02;26.50;;;12.73;;
33654;SDS011;19997;51.274;22.506;2023-02-24T11:31:43;26.73;;;11.45;;
33654;SDS011;19997;51.274;22.506;2023-02-24T11:34:20;22.50;;;11.00;;
33654;SDS011;19997;51.274;22.506;2023-02-24T11:36:55;26.63;;;11.02;;
33654;SDS011;19997;51.274;22.506;2023-02-24T11:39:38;28.33;;;12.00;;
33654;SDS011;19997;51.274;22.506;2023-02-24T11:42:15;29.05;;;13.07;;
33654;SDS011;19997;51.274;22.506;2023-02-24T11:44:49;28.95;;;13.18;;
33654;SDS011;19997;51.274;22.506;2023-02-24T11:47:21;25.50;;;11.75;;
33654;SDS011;19997;51.274;22.506;2023-02-24T11:49:52;28.45;;;13.13;;
33654;SDS011;19997;51.274;22.506;2023-02-24T11:52:29;19.20;;;9.63;;
33654;SDS011;19997;51.274;22.506;2023-02-24T11:54:59;21.50;;;11.20;;
33654;SDS011;19997;51.274;22.506;2023-02-24T11:57:34;24.25;;;11.57;;
33654;SDS011;19997;51.274;22.506;2023-02-24T12:00:06;26.80;;;12.20;;
33654;SDS011;19997;51.274;22.506;2023-02-24T12:02:45;23.17;;;10.48;;
33654;SDS011;19997;51.274;22.506;2023-02-24T12:05:18;28.63;;;12.77;;
33654;SDS011;19997;51.274;22.506;2023-02-24T12:10:18;26.65;;;12.25;;
33654;SDS011;19997;51.274;22.506;2023-02-24T12:12:53;26.15;;;12.30;;
33654;SDS011;19997;51.274;22.506;2023-02-24T12:15:28;26.38;;;12.25;;
33654;SDS011;19997;51.274;22.506;2023-02-24T12:18:01;26.58;;;12.45;;
33654;SDS011;19997;51.274;22.506;2023-02-24T12:20:33;24.90;;;11.88;;
33654;SDS011;19997;51.274;22.506;2023-02-24T12:23:08;32.50;;;12.63;;
33654;SDS011;19997;51.274;22.506;2023-02-24T12:25:46;23.10;;;12.63;;
33654;SDS011;19997;51.274;22.506;2023-02-24T12:28:35;31.25;;;13.73;;
33654;SDS011;19997;51.274;22.506;2023-02-24T12:31:22;30.27;;;13.88;;
33654;SDS011;19997;51.274;22.506;2023-02-24T12:34:00;22.45;;;11.50;;
33654;SDS011;19997;51.274;22.506;2023-02-24T12:36:40;29.23;;;12.55;;
33654;SDS011;19997;51.274;22.506;2023-02-24T12:39:17;33.67;;;13.50;;
33654;SDS011;19997;51.274;22.506;2023-02-24T12:41:55;24.65;;;12.82;;
33654;SDS011;19997;51.274;22.506;2023-02-24T12:44:32;28.00;;;14.07;;
33654;SDS011;19997;51.274;22.506;2023-02-24T12:47:08;23.63;;;12.13;;
33654;SDS011;19997;51.274;22.506;2023-02-24T12:49:41;28.60;;;12.45;;
33654;SDS011;19997;51.274;22.506;2023-02-24T12:52:24;24.90;;;11.30;;
33654;SDS011;19997;51.274;22.506;2023-02-24T12:54:57;26.52;;;13.40;;
33654;SDS011;19997;51.274;22.506;2023-02-24T12:57:35;28.50;;;12.98;;
33654;SDS011;19997;51.274;22.506;2023-02-24T13:00:12;25.23;;;13.40;;
33654;SDS011;19997;51.274;22.506;2023-02-24T13:02:50;29.58;;;12.82;;
33654;SDS011;19997;51.274;22.506;2023-02-24T13:05:23;27.75;;;13.75;;
33654;SDS011;19997;51.274;22.506;2023-02-24T13:08:04;27.77;;;13.55;;
33654;SDS011;19997;51.274;22.506;2023-02-24T13:10:41;25.05;;;13.63;;
33654;SDS011;19997;51.274;22.506;2023-02-24T13:13:13;31.27;;;14.30;;
33654;SDS011;19997;51.274;22.506;2023-02-24T13:15:51;31.42;;;15.45;;
33654;SDS011;19997;51.274;22.506;2023-02-24T13:18:23;29.73;;;14.32;;
33654;SDS011;19997;51.274;22.506;2023-02-24T13:21:00;31.80;;;14.93;;
33654;SDS011;19997;51.274;22.506;2023-02-24T13:23:29;37.70;;;15.82;;
33654;SDS011;19997;51.274;22.506;2023-02-24T13:25:56;30.95;;;14.15;;
33654;SDS011;19997;51.274;22.506;2023-02-24T13:28:24;32.97;;;14.43;;
33654;SDS011;19997;51.274;22.506;2023-02-24T13:30:58;34.88;;;15.30;;
33654;SDS011;19997;51.274;22.506;2023-02-24T13:33:28;34.75;;;14.68;;
33654;SDS011;19997;51.274;22.506;2023-02-24T13:38:42;34.53;;;16.25;;
33654;SDS011;19997;51.274;22.506;2023-02-24T13:41:32;38.17;;;17.23;;
33654;SDS011;19997;51.274;22.506;2023-02-24T13:44:02;30.77;;;15.13;;
33654;SDS011;19997;51.274;22.506;2023-02-24T13:46:50;31.88;;;16.27;;
33654;SDS011;19997;51.274;22.506;2023-02-24T13:49:40;38.30;;;16.75;;
33654;SDS011;19997;51.274;22.506;2023-02-24T13:52:14;40.45;;;17.05;;
33654;SDS011;19997;51.274;22.506;2023-02-24T13:57:58;38.88;;;18.00;;
33654;SDS011;19997;51.274;22.506;2023-02-24T14:00:48;37.50;;;18.50;;
33654;SDS011;19997;51.274;22.506;2023-02-24T14:03:25;45.83;;;19.77;;
33654;SDS011;19997;51.274;22.506;2023-02-24T14:05:54;49.45;;;21.33;;
33654;SDS011;19997;51.274;22.506;2023-02-24T14:08:24;43.65;;;21.38;;
33654;SDS011;19997;51.274;22.506;2023-02-24T14:10:57;39.33;;;19.63;;
33654;SDS011;19997;51.274;22.506;2023-02-24T14:13:28;34.42;;;17.95;;
33654;SDS011;19997;51.274;22.506;2023-02-24T14:15:58;44.97;;;19.05;;
33654;SDS011;19997;51.274;22.506;2023-02-24T14:18:31;40.80;;;19.63;;
33654;SDS011;19997;51.274;22.506;2023-02-24T14:20:58;38.13;;;17.45;;
33654;SDS011;19997;51.274;22.506;2023-02-24T14:23:26;38.55;;;18.52;;
33654;SDS011;19997;51.274;22.506;2023-02-24T14:25:56;40.10;;;18.23;;
33654;SDS011;19997;51.274;22.506;2023-02-24T14:28:26;41.83;;;18.48;;
33654;SDS011;19997;51.274;22.506;2023-02-24T14:30:56;34.28;;;17.52;;
33654;SDS011;19997;51.274;22.506;2023-02-24T14:33:26;37.78;;;19.63;;
33654;SDS011;19997;51.274;22.506;2023-02-24T14:35:56;39.65;;;18.55;;
33654;SDS011;19997;51.274;22.506;2023-02-24T14:38:28;43.40;;;18.70;;
33654;SDS011;19997;51.274;22.506;2023-02-24T14:40:57;40.22;;;19.08;;
33654;SDS011;19997;51.274;22.506;2023-02-24T14:43:25;39.50;;;18.20;;
33654;SDS011;19997;51.274;22.506;2023-02-24T14:45:53;45.53;;;20.02;;
33654;SDS011;19997;51.274;22.506;2023-02-24T14:48:24;43.65;;;20.27;;
33654;SDS011;19997;51.274;22.506;2023-02-24T14:50:53;51.45;;;21.40;;
33654;SDS011;19997;51.274;22.506;2023-02-24T14:53:26;46.00;;;20.17;;
33654;SDS011;19997;51.274;22.506;2023-02-24T14:55:56;47.10;;;20.08;;
33654;SDS011;19997;51.274;22.506;2023-02-24T14:58:27;50.25;;;21.42;;
33654;SDS011;19997;51.274;22.506;2023-02-24T15:00:58;46.95;;;19.90;;
33654;SDS011;19997;51.274;22.506;2023-02-24T15:03:28;45.22;;;19.88;;
33654;SDS011;19997;51.274;22.506;2023-02-24T15:06:03;42.70;;;19.10;;
33654;SDS011;19997;51.274;22.506;2023-02-24T15:08:34;47.88;;;19.65;;
33654;SDS011;19997;51.274;22.506;2023-02-24T15:11:05;46.17;;;20.98;;